Currituck County Regional Airport


Codes: KONX/
Name: Currituck County Regional Airport
City: Currituck
Country: United States
Elevation: 18 ft.
Wikipedia:

Photos at Currituck County Regional Airport


   Photos courtesy of SpottingLog. You can add your own sightings and photos by signing up for a free trial today.



No photos found.

Weather at Currituck County Regional Airport


Time (UTC)DescriptionTempratureWindCloud coverageVisibilityPressureHumidity
13-Jun-2024 03:00Clear Sky21°C7 mph, SE0%10000m1017hPa78%
13-Jun-2024 06:00Scattered Clouds21°C7 mph, SE28%10000m1017hPa80%
13-Jun-2024 09:00Broken Clouds20°C4 mph, SE65%10000m1017hPa82%
13-Jun-2024 12:00Overcast Clouds23°C4 mph, SE86%10000m1018hPa72%
13-Jun-2024 15:00Scattered Clouds25°C9 mph, SE41%10000m1018hPa59%
13-Jun-2024 18:00Broken Clouds25°C11 mph, SE62%10000m1018hPa58%
13-Jun-2024 21:00Overcast Clouds25°C9 mph, SE100%10000m1017hPa64%
14-Jun-2024 00:00Overcast Clouds22°C7 mph, SE100%10000m1017hPa81%
14-Jun-2024 03:00Overcast Clouds22°C7 mph, SE100%10000m1016hPa82%
14-Jun-2024 06:00Overcast Clouds22°C7 mph, SE100%10000m1015hPa86%
14-Jun-2024 09:00Overcast Clouds22°C4 mph, NE99%10000m1014hPa94%
14-Jun-2024 12:00Light Rain23°C4 mph, NE100%10000m1014hPa89%
14-Jun-2024 15:00Light Rain25°C7 mph, E87%10000m1014hPa80%
14-Jun-2024 18:00Broken Clouds26°C9 mph, E55%10000m1012hPa71%
14-Jun-2024 21:00Clear Sky26°C11 mph, SE3%10000m1011hPa76%
15-Jun-2024 00:00Clear Sky23°C9 mph, SE1%10000m1010hPa85%
15-Jun-2024 03:00Clear Sky22°C9 mph, SE0%10000m1011hPa89%
15-Jun-2024 06:00Clear Sky22°C7 mph, SW2%10000m1010hPa94%
15-Jun-2024 09:00Light Rain20°C7 mph, W2%10000m1011hPa97%
15-Jun-2024 12:00Few Clouds22°C16 mph, N18%10000m1013hPa90%
15-Jun-2024 15:00Broken Clouds24°C13 mph, N82%10000m1015hPa69%
15-Jun-2024 18:00Broken Clouds26°C13 mph, NE54%10000m1016hPa57%
15-Jun-2024 21:00Clear Sky23°C16 mph, NE2%10000m1017hPa71%
16-Jun-2024 00:00Clear Sky21°C9 mph, NE3%10000m1019hPa77%
16-Jun-2024 03:00Clear Sky20°C9 mph, E1%10000m1019hPa78%
16-Jun-2024 06:00Scattered Clouds20°C7 mph, E44%10000m1020hPa73%
16-Jun-2024 09:00Broken Clouds19°C4 mph, E69%10000m1020hPa75%
16-Jun-2024 12:00Scattered Clouds22°C4 mph, E39%10000m1023hPa63%
16-Jun-2024 15:00Scattered Clouds24°C9 mph, E32%10000m1023hPa55%
16-Jun-2024 18:00Broken Clouds25°C11 mph, E66%10000m1023hPa58%
16-Jun-2024 21:00Broken Clouds24°C11 mph, SE74%10000m1022hPa60%
17-Jun-2024 00:00Broken Clouds22°C9 mph, SE83%10000m1022hPa78%
17-Jun-2024 03:00Few Clouds21°C9 mph, SE18%10000m1023hPa77%
17-Jun-2024 06:00Broken Clouds21°C9 mph, SE60%10000m1022hPa78%
17-Jun-2024 09:00Overcast Clouds21°C7 mph, S98%10000m1023hPa80%
17-Jun-2024 12:00Overcast Clouds23°C7 mph, S88%10000m1024hPa69%
17-Jun-2024 15:00Scattered Clouds25°C9 mph, SE40%10000m1023hPa59%
17-Jun-2024 18:00Broken Clouds25°C13 mph, SE64%10000m1022hPa58%
17-Jun-2024 21:00Overcast Clouds25°C16 mph, SE97%10000m1021hPa61%
18-Jun-2024 00:00Broken Clouds24°C13 mph, S59%10000m1021hPa70%